sensor_id;sensor_type;location;lat;lon;timestamp;pressure;altitude;pressure_sealevel;temperature;humidity
21781;BME280;52576;53.614;9.894;2023-02-02T00:02:03;100851.19;;;4.72;79.57
21781;BME280;52576;53.614;9.894;2023-02-02T00:04:06;100844.31;;;4.71;79.68
21781;BME280;52576;53.614;9.894;2023-02-02T00:06:09;100863.38;;;4.70;79.77
21781;BME280;52576;53.614;9.894;2023-02-02T00:08:12;100849.50;;;4.71;79.86
21781;BME280;52576;53.614;9.894;2023-02-02T00:10:16;100849.50;;;4.71;79.86
21781;BME280;52576;53.614;9.894;2023-02-02T00:12:20;100846.91;;;4.71;79.99
21781;BME280;52576;53.614;9.894;2023-02-02T00:14:24;100861.69;;;4.69;80.16
21781;BME280;52576;53.614;9.894;2023-02-02T00:16:39;100848.72;;;4.69;79.97
21781;BME280;52576;53.614;9.894;2023-02-02T00:18:42;100856.50;;;4.69;80.25
21781;BME280;52576;53.614;9.894;2023-02-02T00:20:45;100876.38;;;4.70;80.21
21781;BME280;52576;53.614;9.894;2023-02-02T00:22:50;100870.41;;;4.68;80.53
21781;BME280;52576;53.614;9.894;2023-02-02T00:24:53;100865.28;;;4.66;80.91
21781;BME280;52576;53.614;9.894;2023-02-02T00:26:57;100871.41;;;4.65;81.11
21781;BME280;52576;53.614;9.894;2023-02-02T00:29:03;100882.69;;;4.64;81.21
21781;BME280;52576;53.614;9.894;2023-02-02T00:31:07;100874.06;;;4.64;81.28
21781;BME280;52576;53.614;9.894;2023-02-02T00:33:10;100887.03;;;4.64;81.40
21781;BME280;52576;53.614;9.894;2023-02-02T00:35:14;100887.94;;;4.63;81.34
21781;BME280;52576;53.614;9.894;2023-02-02T00:37:17;100889.69;;;4.62;81.21
21781;BME280;52576;53.614;9.894;2023-02-02T00:39:22;100893.13;;;4.63;81.38
21781;BME280;52576;53.614;9.894;2023-02-02T00:41:26;100900.91;;;4.63;81.38
21781;BME280;52576;53.614;9.894;2023-02-02T00:43:29;100903.50;;;4.63;81.26
21781;BME280;52576;53.614;9.894;2023-02-02T00:45:34;100911.25;;;4.64;81.24
21781;BME280;52576;53.614;9.894;2023-02-02T00:47:36;100912.09;;;4.65;81.40
21781;BME280;52576;53.614;9.894;2023-02-02T00:49:40;100918.13;;;4.65;81.46
21781;BME280;52576;53.614;9.894;2023-02-02T00:51:43;100908.59;;;4.66;81.34
21781;BME280;52576;53.614;9.894;2023-02-02T00:53:48;100912.09;;;4.65;81.37
21781;BME280;52576;53.614;9.894;2023-02-02T00:55:52;100924.16;;;4.66;81.13
21781;BME280;52576;53.614;9.894;2023-02-02T00:57:55;100929.34;;;4.66;81.37
21781;BME280;52576;53.614;9.894;2023-02-02T00:59:58;100925.06;;;4.65;81.23
21781;BME280;52576;53.614;9.894;2023-02-02T01:02:02;100937.19;;;4.64;81.22
21781;BME280;52576;53.614;9.894;2023-02-02T01:04:05;100933.75;;;4.64;81.23
21781;BME280;52576;53.614;9.894;2023-02-02T01:06:09;100931.16;;;4.64;81.35
21781;BME280;52576;53.614;9.894;2023-02-02T01:08:12;100928.63;;;4.62;81.18
21781;BME280;52576;53.614;9.894;2023-02-02T01:10:17;100926.09;;;4.61;81.17
21781;BME280;52576;53.614;9.894;2023-02-02T01:12:20;100931.41;;;4.58;81.12
21781;BME280;52576;53.614;9.894;2023-02-02T01:14:23;100922.03;;;4.54;81.23
21781;BME280;52576;53.614;9.894;2023-02-02T01:16:29;100929.94;;;4.51;81.40
21781;BME280;52576;53.614;9.894;2023-02-02T01:18:34;100927.53;;;4.46;81.37
21781;BME280;52576;53.614;9.894;2023-02-02T01:20:37;100942.38;;;4.42;81.33
21781;BME280;52576;53.614;9.894;2023-02-02T01:22:40;100932.19;;;4.38;81.48
21781;BME280;52576;53.614;9.894;2023-02-02T01:24:43;100951.31;;;4.35;81.60
21781;BME280;52576;53.614;9.894;2023-02-02T01:26:46;100948.81;;;4.32;81.71
21781;BME280;52576;53.614;9.894;2023-02-02T01:28:49;100952.28;;;4.33;82.06
21781;BME280;52576;53.614;9.894;2023-02-02T01:30:54;100960.91;;;4.33;81.65
21781;BME280;52576;53.614;9.894;2023-02-02T01:32:57;100958.31;;;4.33;82.04
21781;BME280;52576;53.614;9.894;2023-02-02T01:35:02;100981.59;;;4.35;82.13
21781;BME280;52576;53.614;9.894;2023-02-02T01:37:05;100963.38;;;4.36;82.24
21781;BME280;52576;53.614;9.894;2023-02-02T01:39:08;100954.69;;;4.37;82.39
21781;BME280;52576;53.614;9.894;2023-02-02T01:41:12;100967.63;;;4.39;82.49
21781;BME280;52576;53.614;9.894;2023-02-02T01:43:21;100975.25;;;4.42;82.44
21781;BME280;52576;53.614;9.894;2023-02-02T01:45:25;100975.19;;;4.43;82.51
21781;BME280;52576;53.614;9.894;2023-02-02T01:47:32;100971.75;;;4.43;82.65
21781;BME280;52576;53.614;9.894;2023-02-02T01:49:37;100983.88;;;4.42;82.49
21781;BME280;52576;53.614;9.894;2023-02-02T01:51:46;100995.25;;;4.40;82.62
21781;BME280;52576;53.614;9.894;2023-02-02T01:53:53;101029.94;;;4.37;82.55
21781;BME280;52576;53.614;9.894;2023-02-02T01:55:57;100994.53;;;4.36;82.48
21781;BME280;52576;53.614;9.894;2023-02-02T01:58:02;101009.34;;;4.33;82.30
21781;BME280;52576;53.614;9.894;2023-02-02T02:00:09;101008.63;;;4.29;82.52
21781;BME280;52576;53.614;9.894;2023-02-02T02:02:15;101006.19;;;4.25;82.71
21781;BME280;52576;53.614;9.894;2023-02-02T02:04:19;101024.50;;;4.20;82.95
21781;BME280;52576;53.614;9.894;2023-02-02T02:06:22;101026.31;;;4.18;83.30
21781;BME280;52576;53.614;9.894;2023-02-02T02:08:30;101014.38;;;4.14;83.53
21781;BME280;52576;53.614;9.894;2023-02-02T02:10:36;101024.88;;;4.11;83.57
21781;BME280;52576;53.614;9.894;2023-02-02T02:12:39;101020.59;;;4.10;84.02
21781;BME280;52576;53.614;9.894;2023-02-02T02:14:45;101039.63;;;4.09;84.20
21781;BME280;52576;53.614;9.894;2023-02-02T02:17:16;101038.84;;;4.07;84.52
21781;BME280;52576;53.614;9.894;2023-02-02T02:19:52;101039.69;;;4.07;84.62
21781;BME280;52576;53.614;9.894;2023-02-02T02:22:20;101042.34;;;4.06;84.90
21781;BME280;52576;53.614;9.894;2023-02-02T02:25:09;101052.72;;;4.06;85.24
21781;BME280;52576;53.614;9.894;2023-02-02T02:30:40;101056.31;;;4.02;85.40
21781;BME280;52576;53.614;9.894;2023-02-02T02:32:55;101056.41;;;3.99;85.47
21781;BME280;52576;53.614;9.894;2023-02-02T02:35:09;101070.38;;;3.95;85.69
21781;BME280;52576;53.614;9.894;2023-02-02T02:37:20;101051.44;;;3.93;85.74
21781;BME280;52576;53.614;9.894;2023-02-02T02:39:28;101048.97;;;3.90;85.69
21781;BME280;52576;53.614;9.894;2023-02-02T02:41:38;101050.81;;;3.86;85.85
21781;BME280;52576;53.614;9.894;2023-02-02T02:43:48;101057.81;;;3.84;85.98
21781;BME280;52576;53.614;9.894;2023-02-02T02:45:54;101056.97;;;3.84;85.92
21781;BME280;52576;53.614;9.894;2023-02-02T02:48:01;101060.34;;;3.86;86.13
21781;BME280;52576;53.614;9.894;2023-02-02T02:50:06;101063.78;;;3.86;86.18
21781;BME280;52576;53.614;9.894;2023-02-02T02:52:09;101070.63;;;3.89;86.07
21781;BME280;52576;53.614;9.894;2023-02-02T02:54:15;101071.38;;;3.91;86.28
21781;BME280;52576;53.614;9.894;2023-02-02T02:56:23;101067.91;;;3.92;86.21
21781;BME280;52576;53.614;9.894;2023-02-02T02:58:39;101060.06;;;3.93;86.09
21781;BME280;52576;53.614;9.894;2023-02-02T03:00:56;101061.69;;;3.96;86.26
21781;BME280;52576;53.614;9.894;2023-02-02T03:03:07;101064.19;;;3.99;86.08
21781;BME280;52576;53.614;9.894;2023-02-02T03:05:22;101064.09;;;4.02;86.25
21781;BME280;52576;53.614;9.894;2023-02-02T03:07:34;101066.59;;;4.05;86.00
21781;BME280;52576;53.614;9.894;2023-02-02T03:09:42;101075.16;;;4.07;85.93
21781;BME280;52576;53.614;9.894;2023-02-02T03:11:46;101076.00;;;4.07;86.02
21781;BME280;52576;53.614;9.894;2023-02-02T03:13:49;101083.75;;;4.09;85.90
21781;BME280;52576;53.614;9.894;2023-02-02T03:15:52;101085.44;;;4.10;85.64
21781;BME280;52576;53.614;9.894;2023-02-02T03:17:56;101099.19;;;4.12;85.61
21781;BME280;52576;53.614;9.894;2023-02-02T03:20:00;101105.22;;;4.13;85.38
21781;BME280;52576;53.614;9.894;2023-02-02T03:22:03;101090.50;;;4.13;85.20
21781;BME280;52576;53.614;9.894;2023-02-02T03:24:06;101103.44;;;4.15;84.92
21781;BME280;52576;53.614;9.894;2023-02-02T03:26:09;101110.38;;;4.14;84.84
21781;BME280;52576;53.614;9.894;2023-02-02T03:28:14;101106.88;;;4.15;85.01
21781;BME280;52576;53.614;9.894;2023-02-02T03:30:18;101114.66;;;4.15;84.92
21781;BME280;52576;53.614;9.894;2023-02-02T03:32:22;101112.97;;;4.14;84.70
21781;BME280;52576;53.614;9.894;2023-02-02T03:34:25;101121.66;;;4.13;84.74
21781;BME280;52576;53.614;9.894;2023-02-02T03:36:29;101114.75;;;4.12;84.67
21781;BME280;52576;53.614;9.894;2023-02-02T03:38:32;101111.38;;;4.10;84.86
21781;BME280;52576;53.614;9.894;2023-02-02T03:40:35;101118.34;;;4.08;84.78
21781;BME280;52576;53.614;9.894;2023-02-02T03:42:38;101122.75;;;4.06;84.78
21781;BME280;52576;53.614;9.894;2023-02-02T03:44:41;101146.19;;;4.03;84.64
21781;BME280;52576;53.614;9.894;2023-02-02T03:46:44;101133.28;;;4.01;84.60
21781;BME280;52576;53.614;9.894;2023-02-02T03:48:48;101132.44;;;4.01;84.33
21781;BME280;52576;53.614;9.894;2023-02-02T03:50:51;101143.75;;;3.98;84.45
21781;BME280;52576;53.614;9.894;2023-02-02T03:52:55;101148.09;;;3.98;84.19
21781;BME280;52576;53.614;9.894;2023-02-02T03:54:58;101147.28;;;3.96;84.13
21781;BME280;52576;53.614;9.894;2023-02-02T03:57:02;101158.56;;;3.95;84.04
21781;BME280;52576;53.614;9.894;2023-02-02T03:59:05;101153.47;;;3.92;84.09
21781;BME280;52576;53.614;9.894;2023-02-02T04:01:11;101156.97;;;3.91;83.93
21781;BME280;52576;53.614;9.894;2023-02-02T04:03:14;101165.72;;;3.88;83.91
21781;BME280;52576;53.614;9.894;2023-02-02T04:05:18;101157.94;;;3.88;83.99
21781;BME280;52576;53.614;9.894;2023-02-02T04:07:21;101163.97;;;3.89;84.12
21781;BME280;52576;53.614;9.894;2023-02-02T04:09:25;101161.38;;;3.89;83.98
21781;BME280;52576;53.614;9.894;2023-02-02T04:11:28;101162.16;;;3.91;84.00
21781;BME280;52576;53.614;9.894;2023-02-02T04:13:32;101167.34;;;3.91;84.05
21781;BME280;52576;53.614;9.894;2023-02-02T04:15:35;101172.41;;;3.94;84.26
21781;BME280;52576;53.614;9.894;2023-02-02T04:17:38;101172.31;;;3.97;84.33
21781;BME280;52576;53.614;9.894;2023-02-02T04:19:41;101185.25;;;3.98;84.08
21781;BME280;52576;53.614;9.894;2023-02-02T04:21:44;101179.09;;;4.01;84.00
21781;BME280;52576;53.614;9.894;2023-02-02T04:23:47;101188.50;;;4.05;84.28
21781;BME280;52576;53.614;9.894;2023-02-02T04:25:52;101192.78;;;4.06;84.21
21781;BME280;52576;53.614;9.894;2023-02-02T04:27:55;101197.88;;;4.09;84.16
21781;BME280;52576;53.614;9.894;2023-02-02T04:29:58;101193.53;;;4.09;84.24
21781;BME280;52576;53.614;9.894;2023-02-02T04:32:01;101197.78;;;4.12;84.13
21781;BME280;52576;53.614;9.894;2023-02-02T04:34:04;101209.84;;;4.13;84.00
21781;BME280;52576;53.614;9.894;2023-02-02T04:36:07;101210.69;;;4.14;83.86
21781;BME280;52576;53.614;9.894;2023-02-02T04:38:10;101208.03;;;4.15;83.86
21781;BME280;52576;53.614;9.894;2023-02-02T04:40:14;101202.84;;;4.15;83.90
21781;BME280;52576;53.614;9.894;2023-02-02T04:42:18;101213.16;;;4.17;83.83
21781;BME280;52576;53.614;9.894;2023-02-02T04:44:21;101216.59;;;4.17;83.40
21781;BME280;52576;53.614;9.894;2023-02-02T04:46:24;101228.66;;;4.18;83.31
21781;BME280;52576;53.614;9.894;2023-02-02T04:48:29;101213.94;;;4.19;83.13
21781;BME280;52576;53.614;9.894;2023-02-02T04:50:32;101216.50;;;4.20;83.03
21781;BME280;52576;53.614;9.894;2023-02-02T04:52:35;101211.31;;;4.20;82.81
21781;BME280;52576;53.614;9.894;2023-02-02T04:54:38;101217.41;;;4.19;82.73
21781;BME280;52576;53.614;9.894;2023-02-02T04:56:42;101213.91;;;4.20;82.57
21781;BME280;52576;53.614;9.894;2023-02-02T04:58:46;101214.69;;;4.22;82.59
21781;BME280;52576;53.614;9.894;2023-02-02T05:00:49;101231.13;;;4.23;82.41
21781;BME280;52576;53.614;9.894;2023-02-02T05:02:52;101228.47;;;4.24;82.48
21781;BME280;52576;53.614;9.894;2023-02-02T05:04:55;101231.06;;;4.24;82.23
21781;BME280;52576;53.614;9.894;2023-02-02T05:06:58;101221.50;;;4.26;82.33
21781;BME280;52576;53.614;9.894;2023-02-02T05:09:01;101237.06;;;4.26;82.49
21781;BME280;52576;53.614;9.894;2023-02-02T05:11:05;101229.22;;;4.28;82.23
21781;BME280;52576;53.614;9.894;2023-02-02T05:13:08;101227.53;;;4.27;82.45
21781;BME280;52576;53.614;9.894;2023-02-02T05:15:13;101226.63;;;4.28;82.72
21781;BME280;52576;53.614;9.894;2023-02-02T05:17:16;101224.88;;;4.28;82.62
21781;BME280;52576;53.614;9.894;2023-02-02T05:19:19;101224.88;;;4.28;82.69
21781;BME280;52576;53.614;9.894;2023-02-02T05:21:22;101231.78;;;4.29;82.60
21781;BME280;52576;53.614;9.894;2023-02-02T05:23:25;101224.88;;;4.28;82.68
21781;BME280;52576;53.614;9.894;2023-02-02T05:25:29;101228.28;;;4.30;83.08
21781;BME280;52576;53.614;9.894;2023-02-02T05:27:32;101233.53;;;4.29;83.00
21781;BME280;52576;53.614;9.894;2023-02-02T05:29:35;101243.00;;;4.30;83.03
21781;BME280;52576;53.614;9.894;2023-02-02T05:31:40;101243.84;;;4.30;83.05
21781;BME280;52576;53.614;9.894;2023-02-02T05:33:43;101243.84;;;4.30;82.88
21781;BME280;52576;53.614;9.894;2023-02-02T05:35:46;101276.69;;;4.31;83.00
21781;BME280;52576;53.614;9.894;2023-02-02T05:37:50;101264.50;;;4.33;82.97
21781;BME280;52576;53.614;9.894;2023-02-02T05:39:53;101266.22;;;4.34;82.77
21781;BME280;52576;53.614;9.894;2023-02-02T05:41:56;101281.72;;;4.36;82.93
21781;BME280;52576;53.614;9.894;2023-02-02T05:43:59;101269.59;;;4.36;82.91
21781;BME280;52576;53.614;9.894;2023-02-02T05:46:02;101271.31;;;4.37;82.95
21781;BME280;52576;53.614;9.894;2023-02-02T05:48:08;101271.31;;;4.37;82.85
21781;BME280;52576;53.614;9.894;2023-02-02T05:50:11;101273.00;;;4.38;82.86
21781;BME280;52576;53.614;9.894;2023-02-02T05:52:17;101279.88;;;4.39;82.71
21781;BME280;52576;53.614;9.894;2023-02-02T05:54:21;101276.38;;;4.40;82.58
21781;BME280;52576;53.614;9.894;2023-02-02T05:56:24;101284.94;;;4.42;82.56
21781;BME280;52576;53.614;9.894;2023-02-02T05:58:27;101291.84;;;4.43;82.49
21781;BME280;52576;53.614;9.894;2023-02-02T06:00:31;101295.28;;;4.44;82.58
21781;BME280;52576;53.614;9.894;2023-02-02T06:02:34;101303.00;;;4.46;82.36
21781;BME280;52576;53.614;9.894;2023-02-02T06:04:38;101295.22;;;4.46;82.48
21781;BME280;52576;53.614;9.894;2023-02-02T06:06:41;101291.72;;;4.47;82.43
21781;BME280;52576;53.614;9.894;2023-02-02T06:08:44;101290.88;;;4.46;82.26
21781;BME280;52576;53.614;9.894;2023-02-02T06:10:47;101303.81;;;4.48;82.31
21781;BME280;52576;53.614;9.894;2023-02-02T06:12:50;101295.19;;;4.47;82.53
21781;BME280;52576;53.614;9.894;2023-02-02T06:14:54;101305.50;;;4.49;82.50
21781;BME280;52576;53.614;9.894;2023-02-02T06:16:57;101309.84;;;4.48;82.38
21781;BME280;52576;53.614;9.894;2023-02-02T06:19:00;101315.91;;;4.49;82.39
21781;BME280;52576;53.614;9.894;2023-02-02T06:21:05;101309.81;;;4.50;82.54
21781;BME280;52576;53.614;9.894;2023-02-02T06:23:08;101304.66;;;4.48;82.63
21781;BME280;52576;53.614;9.894;2023-02-02T06:25:11;101314.19;;;4.48;82.53
21781;BME280;52576;53.614;9.894;2023-02-02T06:27:14;101301.22;;;4.48;82.57
21781;BME280;52576;53.614;9.894;2023-02-02T06:29:17;101303.81;;;4.48;82.70
21781;BME280;52576;53.614;9.894;2023-02-02T06:31:21;101318.59;;;4.46;82.52
21781;BME280;52576;53.614;9.894;2023-02-02T06:33:24;101316.00;;;4.46;82.68
21781;BME280;52576;53.614;9.894;2023-02-02T06:35:27;101326.38;;;4.46;82.56
21781;BME280;52576;53.614;9.894;2023-02-02T06:37:32;101331.56;;;4.46;82.50
21781;BME280;52576;53.614;9.894;2023-02-02T06:39:35;101333.25;;;4.47;82.42
21781;BME280;52576;53.614;9.894;2023-02-02T06:41:38;101341.06;;;4.47;82.54
21781;BME280;52576;53.614;9.894;2023-02-02T06:43:42;101354.88;;;4.47;82.62
21781;BME280;52576;53.614;9.894;2023-02-02T06:45:45;101353.19;;;4.46;82.68
21781;BME280;52576;53.614;9.894;2023-02-02T06:47:48;101350.63;;;4.44;82.46
21781;BME280;52576;53.614;9.894;2023-02-02T06:49:51;101358.47;;;4.43;82.42
21781;BME280;52576;53.614;9.894;2023-02-02T06:51:54;101345.56;;;4.41;82.12
21781;BME280;52576;53.614;9.894;2023-02-02T06:53:59;101357.75;;;4.39;82.10
21781;BME280;52576;53.614;9.894;2023-02-02T06:56:04;101353.44;;;4.38;81.58
21781;BME280;52576;53.614;9.894;2023-02-02T06:58:07;101359.53;;;4.37;81.60
21781;BME280;52576;53.614;9.894;2023-02-02T07:00:11;101363.84;;;4.38;81.49
21781;BME280;52576;53.614;9.894;2023-02-02T07:02:15;101373.41;;;4.36;81.42
21781;BME280;52576;53.614;9.894;2023-02-02T07:04:18;101370.81;;;4.36;81.05
21781;BME280;52576;53.614;9.894;2023-02-02T07:06:22;101368.22;;;4.36;81.00
21781;BME280;52576;53.614;9.894;2023-02-02T07:08:26;101377.75;;;4.36;80.95
21781;BME280;52576;53.614;9.894;2023-02-02T07:10:31;101387.28;;;4.35;80.96
21781;BME280;52576;53.614;9.894;2023-02-02T07:12:55;101392.47;;;4.35;81.30
21781;BME280;52576;53.614;9.894;2023-02-02T07:14:58;101390.72;;;4.36;81.26
21781;BME280;52576;53.614;9.894;2023-02-02T07:17:01;101399.38;;;4.36;81.58
21781;BME280;52576;53.614;9.894;2023-02-02T07:19:04;101395.03;;;4.37;81.66
21781;BME280;52576;53.614;9.894;2023-02-02T07:21:08;101407.94;;;4.38;81.64
21781;BME280;52576;53.614;9.894;2023-02-02T07:23:11;101412.28;;;4.38;82.08
21781;BME280;52576;53.614;9.894;2023-02-02T07:25:14;101404.56;;;4.36;82.15
21781;BME280;52576;53.614;9.894;2023-02-02T07:27:19;101406.34;;;4.34;82.08
21781;BME280;52576;53.614;9.894;2023-02-02T07:29:22;101408.97;;;4.33;82.45
21781;BME280;52576;53.614;9.894;2023-02-02T07:31:25;101416.81;;;4.31;82.51
21781;BME280;52576;53.614;9.894;2023-02-02T07:33:30;101413.41;;;4.29;82.34
21781;BME280;52576;53.614;9.894;2023-02-02T07:35:34;101416.91;;;4.28;82.57
21781;BME280;52576;53.614;9.894;2023-02-02T07:37:37;101418.69;;;4.26;82.74
21781;BME280;52576;53.614;9.894;2023-02-02T07:39:41;101423.03;;;4.26;82.50
21781;BME280;52576;53.614;9.894;2023-02-02T07:41:45;101421.28;;;4.26;82.69
21781;BME280;52576;53.614;9.894;2023-02-02T07:44:00;101424.72;;;4.27;82.71
21781;BME280;52576;53.614;9.894;2023-02-02T07:46:05;101425.59;;;4.27;82.78
21781;BME280;52576;53.614;9.894;2023-02-02T07:48:10;101431.66;;;4.26;82.80
21781;BME280;52576;53.614;9.894;2023-02-02T07:50:13;101436.81;;;4.28;82.79
21781;BME280;52576;53.614;9.894;2023-02-02T07:52:17;101441.97;;;4.29;82.73
21781;BME280;52576;53.614;9.894;2023-02-02T07:54:20;101441.06;;;4.30;82.75
21781;BME280;52576;53.614;9.894;2023-02-02T07:56:25;101447.97;;;4.31;82.72
21781;BME280;52576;53.614;9.894;2023-02-02T07:58:28;101446.16;;;4.33;82.79
21781;BME280;52576;53.614;9.894;2023-02-02T08:00:33;101451.28;;;4.36;82.64
21781;BME280;52576;53.614;9.894;2023-02-02T08:02:36;101458.13;;;4.39;82.48
21781;BME280;52576;53.614;9.894;2023-02-02T08:04:39;101454.56;;;4.41;82.34
21781;BME280;52576;53.614;9.894;2023-02-02T08:06:42;101464.97;;;4.41;82.52
21781;BME280;52576;53.614;9.894;2023-02-02T08:08:46;101459.78;;;4.41;82.49
21781;BME280;52576;53.614;9.894;2023-02-02T08:10:50;101466.63;;;4.42;82.35
21781;BME280;52576;53.614;9.894;2023-02-02T08:12:54;101461.44;;;4.42;82.27
21781;BME280;52576;53.614;9.894;2023-02-02T08:14:57;101472.75;;;4.41;82.05
21781;BME280;52576;53.614;9.894;2023-02-02T08:17:01;101475.34;;;4.41;82.07
21781;BME280;52576;53.614;9.894;2023-02-02T08:19:05;101486.63;;;4.40;81.95
21781;BME280;52576;53.614;9.894;2023-02-02T08:21:09;101493.56;;;4.40;82.02
21781;BME280;52576;53.614;9.894;2023-02-02T08:23:12;101494.50;;;4.37;82.04
21781;BME280;52576;53.614;9.894;2023-02-02T08:25:17;101490.16;;;4.38;81.89
21781;BME280;52576;53.614;9.894;2023-02-02T08:27:20;101509.97;;;4.40;82.03
21781;BME280;52576;53.614;9.894;2023-02-02T08:29:23;101497.00;;;4.40;81.89
21781;BME280;52576;53.614;9.894;2023-02-02T08:31:28;101513.31;;;4.44;81.89
21781;BME280;52576;53.614;9.894;2023-02-02T08:33:33;101515.84;;;4.46;81.85
21781;BME280;52576;53.614;9.894;2023-02-02T08:35:39;101517.53;;;4.48;81.82
21781;BME280;52576;53.614;9.894;2023-02-02T08:37:42;101523.47;;;4.52;81.80
21781;BME280;52576;53.614;9.894;2023-02-02T08:39:46;101516.44;;;4.55;81.69
21781;BME280;52576;53.614;9.894;2023-02-02T08:41:49;101523.28;;;4.58;81.42
21781;BME280;52576;53.614;9.894;2023-02-02T08:43:52;101523.28;;;4.58;81.21
21781;BME280;52576;53.614;9.894;2023-02-02T08:45:56;101523.28;;;4.58;81.32
21781;BME280;52576;53.614;9.894;2023-02-02T08:48:05;101514.69;;;4.56;81.16
21781;BME280;52576;53.614;9.894;2023-02-02T08:50:15;101517.28;;;4.56;81.13
21781;BME280;52576;53.614;9.894;2023-02-02T08:52:19;101525.09;;;4.56;81.08
21781;BME280;52576;53.614;9.894;2023-02-02T08:54:22;101537.16;;;4.57;80.93
21781;BME280;52576;53.614;9.894;2023-02-02T08:56:25;101532.84;;;4.57;80.84
21781;BME280;52576;53.614;9.894;2023-02-02T08:58:28;101535.38;;;4.59;80.89
21781;BME280;52576;53.614;9.894;2023-02-02T09:00:31;101537.88;;;4.62;80.75
21781;BME280;52576;53.614;9.894;2023-02-02T09:02:35;101540.28;;;4.68;80.72
21781;BME280;52576;53.614;9.894;2023-02-02T09:04:38;101550.41;;;4.77;80.66
21781;BME280;52576;53.614;9.894;2023-02-02T09:06:44;101548.44;;;4.85;80.53
21781;BME280;52576;53.614;9.894;2023-02-02T09:08:47;101549.13;;;4.90;80.48
21781;BME280;52576;53.614;9.894;2023-02-02T09:10:51;101551.66;;;4.93;80.13
21781;BME280;52576;53.614;9.894;2023-02-02T09:12:54;101563.66;;;4.96;80.14
21781;BME280;52576;53.614;9.894;2023-02-02T09:14:57;101543.69;;;4.98;79.79
21781;BME280;52576;53.614;9.894;2023-02-02T09:17:00;101546.25;;;4.99;79.87
21781;BME280;52576;53.614;9.894;2023-02-02T09:19:03;101553.19;;;4.99;79.81
21781;BME280;52576;53.614;9.894;2023-02-02T09:21:08;101565.41;;;4.95;79.74
21781;BME280;52576;53.614;9.894;2023-02-02T09:23:13;101569.88;;;4.92;79.74
21781;BME280;52576;53.614;9.894;2023-02-02T09:25:16;101571.66;;;4.90;79.84
21781;BME280;52576;53.614;9.894;2023-02-02T09:27:20;101582.09;;;4.88;79.91
21781;BME280;52576;53.614;9.894;2023-02-02T09:29:23;101581.25;;;4.88;79.81
21781;BME280;52576;53.614;9.894;2023-02-02T09:31:26;101590.75;;;4.89;80.00
21781;BME280;52576;53.614;9.894;2023-02-02T09:33:29;101590.72;;;4.90;80.02
21781;BME280;52576;53.614;9.894;2023-02-02T09:35:32;101588.97;;;4.91;79.82
21781;BME280;52576;53.614;9.894;2023-02-02T09:37:35;101595.00;;;4.91;79.72
21781;BME280;52576;53.614;9.894;2023-02-02T09:39:40;101593.22;;;4.93;79.89
21781;BME280;52576;53.614;9.894;2023-02-02T09:42:05;101594.88;;;4.94;79.61
21781;BME280;52576;53.614;9.894;2023-02-02T09:44:14;101599.94;;;4.99;79.70
21781;BME280;52576;53.614;9.894;2023-02-02T09:46:29;101608.50;;;5.02;79.52
21781;BME280;52576;53.614;9.894;2023-02-02T09:48:42;101617.91;;;5.06;79.41
21781;BME280;52576;53.614;9.894;2023-02-02T09:50:53;101613.50;;;5.08;79.12
21781;BME280;52576;53.614;9.894;2023-02-02T09:53:02;101606.53;;;5.10;78.98
21781;BME280;52576;53.614;9.894;2023-02-02T09:55:14;101613.34;;;5.15;78.90
21781;BME280;52576;53.614;9.894;2023-02-02T09:57:23;101613.25;;;5.18;78.97
21781;BME280;52576;53.614;9.894;2023-02-02T09:59:30;101614.06;;;5.20;78.87
21781;BME280;52576;53.614;9.894;2023-02-02T10:01:37;101623.44;;;5.24;78.76
21781;BME280;52576;53.614;9.894;2023-02-02T10:03:54;101622.38;;;5.29;78.83
21781;BME280;52576;53.614;9.894;2023-02-02T10:06:02;101622.16;;;5.37;78.77
21781;BME280;52576;53.614;9.894;2023-02-02T10:08:15;101631.47;;;5.44;78.59
21781;BME280;52576;53.614;9.894;2023-02-02T10:10:39;101627.84;;;5.48;78.22
21781;BME280;52576;53.614;9.894;2023-02-02T10:12:48;101636.34;;;5.53;78.31
21781;BME280;52576;53.614;9.894;2023-02-02T10:14:57;101634.47;;;5.58;77.92
21781;BME280;52576;53.614;9.894;2023-02-02T10:17:23;101640.38;;;5.63;77.79
21781;BME280;52576;53.614;9.894;2023-02-02T10:19:28;101642.78;;;5.69;77.52
21781;BME280;52576;53.614;9.894;2023-02-02T10:21:37;101639.19;;;5.72;77.30
21781;BME280;52576;53.614;9.894;2023-02-02T10:23:43;101645.13;;;5.77;77.28
21781;BME280;52576;53.614;9.894;2023-02-02T10:25:55;101645.75;;;5.84;77.23
21781;BME280;52576;53.614;9.894;2023-02-02T10:27:59;101649.09;;;5.89;76.82
21781;BME280;52576;53.614;9.894;2023-02-02T10:30:14;101657.66;;;5.92;76.40
21781;BME280;52576;53.614;9.894;2023-02-02T10:32:23;101667.97;;;5.95;76.41
21781;BME280;52576;53.614;9.894;2023-02-02T10:34:30;101666.09;;;5.99;75.97
21781;BME280;52576;53.614;9.894;2023-02-02T10:36:46;101676.41;;;6.02;75.63
21781;BME280;52576;53.614;9.894;2023-02-02T10:38:56;101679.69;;;6.07;75.21
21781;BME280;52576;53.614;9.894;2023-02-02T10:41:08;101686.50;;;6.11;75.03
21781;BME280;52576;53.614;9.894;2023-02-02T10:43:40;101694.06;;;6.19;74.96
21781;BME280;52576;53.614;9.894;2023-02-02T10:45:49;101689.47;;;6.25;74.67
21781;BME280;52576;53.614;9.894;2023-02-02T10:47:53;101684.97;;;6.30;74.55
21781;BME280;52576;53.614;9.894;2023-02-02T10:50:05;101690.88;;;6.35;74.00
21781;BME280;52576;53.614;9.894;2023-02-02T10:52:15;101694.19;;;6.40;73.81
21781;BME280;52576;53.614;9.894;2023-02-02T10:54:36;101690.56;;;6.44;73.35
21781;BME280;52576;53.614;9.894;2023-02-02T10:57:00;101699.28;;;6.43;72.97
21781;BME280;52576;53.614;9.894;2023-02-02T10:59:10;101697.69;;;6.39;72.77
21781;BME280;52576;53.614;9.894;2023-02-02T11:01:15;101701.19;;;6.38;72.65
21781;BME280;52576;53.614;9.894;2023-02-02T11:03:27;101713.25;;;6.41;72.46
21781;BME280;52576;53.614;9.894;2023-02-02T11:05:31;101706.19;;;6.44;72.17
21781;BME280;52576;53.614;9.894;2023-02-02T11:07:52;101714.69;;;6.50;72.23
21781;BME280;52576;53.614;9.894;2023-02-02T11:09:56;101713.78;;;6.51;72.21